createdAt,value
2023-01-03T00:02:18.835Z,24.76
2023-01-03T00:04:49.641Z,24.47
2023-01-03T00:07:33.843Z,24.62
2023-01-03T00:10:02.561Z,24.69
2023-01-03T00:12:32.160Z,24.65
2023-01-03T00:14:59.940Z,24.17
2023-01-03T00:17:27.822Z,24.47
2023-01-03T00:19:55.567Z,24.45
2023-01-03T00:22:22.957Z,24.27
2023-01-03T00:24:52.167Z,24.29
2023-01-03T00:27:19.399Z,24.42
2023-01-03T00:29:47.557Z,23.91
2023-01-03T00:32:15.430Z,24.22
2023-01-03T00:34:44.846Z,24.74
2023-01-03T00:37:12.504Z,24.84
2023-01-03T00:39:39.701Z,24.13
2023-01-03T00:42:07.577Z,24.32
2023-01-03T00:44:34.991Z,24.23
2023-01-03T00:47:02.371Z,24.28
2023-01-03T00:49:29.635Z,24.64
2023-01-03T00:51:57.367Z,24.90
2023-01-03T00:54:24.857Z,24.52
2023-01-03T00:56:52.314Z,25.24
2023-01-03T00:59:20.800Z,24.63
2023-01-03T01:01:49.667Z,24.49
2023-01-03T01:04:28.004Z,24.70
2023-01-03T01:07:00.320Z,24.66
2023-01-03T01:09:29.075Z,24.37
2023-01-03T01:11:57.327Z,24.68
2023-01-03T01:14:25.476Z,24.71
2023-01-03T01:16:52.754Z,24.76
2023-01-03T01:19:20.935Z,24.60
2023-01-03T01:21:48.971Z,24.85
2023-01-03T01:24:23.924Z,24.82
2023-01-03T01:26:52.260Z,25.02
2023-01-03T01:29:20.097Z,24.17
2023-01-03T01:31:48.237Z,24.83
2023-01-03T01:34:15.941Z,24.48
2023-01-03T01:36:43.838Z,24.19
2023-01-03T01:39:12.948Z,24.28
2023-01-03T01:42:00.258Z,24.30
2023-01-03T01:44:46.449Z,24.36
2023-01-03T01:47:16.746Z,24.29
2023-01-03T01:49:45.685Z,24.49
2023-01-03T01:52:14.598Z,24.18
2023-01-03T01:54:42.947Z,24.36
2023-01-03T01:57:12.679Z,24.56
2023-01-03T01:59:40.079Z,24.20
2023-01-03T02:02:07.955Z,24.60
2023-01-03T02:04:37.691Z,24.54
2023-01-03T02:07:07.093Z,24.59
2023-01-03T02:09:35.604Z,24.60
2023-01-03T02:12:40.659Z,24.33
2023-01-03T02:15:25.635Z,24.00
2023-01-03T02:18:04.895Z,24.82
2023-01-03T02:20:39.150Z,24.15
2023-01-03T02:23:17.217Z,24.23
2023-01-03T02:25:56.758Z,24.26
2023-01-03T02:28:29.877Z,24.94
2023-01-03T02:31:05.494Z,24.59
2023-01-03T02:33:41.959Z,24.38
2023-01-03T02:36:09.234Z,24.60
2023-01-03T02:38:59.858Z,24.43
2023-01-03T02:41:46.857Z,24.98
2023-01-03T02:44:28.926Z,24.44
2023-01-03T02:47:01.020Z,24.47
2023-01-03T02:49:34.569Z,24.30
2023-01-03T02:52:04.382Z,24.13
2023-01-03T02:54:38.531Z,24.67
2023-01-03T02:57:10.617Z,24.42
2023-01-03T02:59:41.063Z,24.46
2023-01-03T03:02:09.404Z,24.27
2023-01-03T03:04:38.197Z,24.56
2023-01-03T03:07:19.706Z,24.16
2023-01-03T03:10:07.110Z,24.19
2023-01-03T03:12:53.838Z,24.01
2023-01-03T03:15:23.598Z,24.42
2023-01-03T03:17:54.349Z,24.20
2023-01-03T03:20:40.136Z,23.89
2023-01-03T03:23:29.168Z,25.07
2023-01-03T03:26:07.126Z,24.36
2023-01-03T03:28:36.816Z,24.69
2023-01-03T03:31:23.066Z,24.78
2023-01-03T03:33:53.727Z,24.45
2023-01-03T03:36:20.962Z,24.39
2023-01-03T03:38:48.285Z,24.57
2023-01-03T03:41:39.077Z,24.21
2023-01-03T03:44:44.251Z,24.89
2023-01-03T03:47:37.493Z,24.14
2023-01-03T03:50:13.680Z,25.00
2023-01-03T03:52:45.114Z,25.13
2023-01-03T03:55:17.173Z,24.35
2023-01-03T03:57:51.965Z,24.22
2023-01-03T04:00:22.623Z,24.82
2023-01-03T04:02:50.234Z,24.78
2023-01-03T04:05:19.186Z,24.34
2023-01-03T04:07:46.831Z,24.59
2023-01-03T04:10:14.549Z,25.13
2023-01-03T04:12:41.797Z,24.70
2023-01-03T04:15:09.187Z,24.75
2023-01-03T04:17:36.483Z,24.19
2023-01-03T04:20:03.785Z,24.48
2023-01-03T04:22:30.974Z,24.38
2023-01-03T04:24:58.207Z,24.84
2023-01-03T04:27:25.639Z,24.96
2023-01-03T04:29:52.917Z,24.66
2023-01-03T04:32:20.182Z,24.78
2023-01-03T04:34:47.582Z,24.95
2023-01-03T04:37:14.879Z,24.59
2023-01-03T04:39:42.088Z,24.27
2023-01-03T04:42:28.069Z,24.58
2023-01-03T04:44:55.327Z,24.60
2023-01-03T04:47:22.647Z,25.05
2023-01-03T04:49:51.339Z,24.57
2023-01-03T04:52:18.645Z,24.13
2023-01-03T04:54:46.364Z,23.90
2023-01-03T04:57:13.725Z,24.06
2023-01-03T04:59:41.140Z,24.10
2023-01-03T05:02:08.819Z,24.03
2023-01-03T05:04:36.427Z,24.78
2023-01-03T05:07:03.855Z,24.46
2023-01-03T05:09:31.139Z,25.29
2023-01-03T05:12:00.417Z,24.92
2023-01-03T05:14:27.650Z,24.41
2023-01-03T05:16:54.885Z,24.77
2023-01-03T05:19:24.366Z,24.46
2023-01-03T05:22:10.293Z,24.71
2023-01-03T05:24:56.188Z,24.50
2023-01-03T05:27:23.755Z,24.43
2023-01-03T05:29:52.715Z,24.56
2023-01-03T05:32:20.782Z,24.12
2023-01-03T05:34:48.170Z,24.59
2023-01-03T05:37:15.449Z,24.99
2023-01-03T05:39:42.643Z,24.94
2023-01-03T05:42:10.019Z,24.75
2023-01-03T05:44:37.223Z,24.74
2023-01-03T05:47:04.985Z,24.37
2023-01-03T05:49:32.252Z,25.27
2023-01-03T05:51:59.534Z,25.08
2023-01-03T05:54:26.825Z,24.57
2023-01-03T05:56:54.742Z,25.19
2023-01-03T05:59:22.877Z,23.91
2023-01-03T06:01:50.364Z,24.67
2023-01-03T06:04:18.933Z,24.81
2023-01-03T06:06:47.905Z,24.58
2023-01-03T06:09:15.221Z,24.52
2023-01-03T06:11:42.578Z,24.48
2023-01-03T06:14:09.793Z,24.09
2023-01-03T06:16:56.023Z,23.98
2023-01-03T06:19:24.686Z,24.44
2023-01-03T06:21:51.963Z,24.46
2023-01-03T06:24:20.328Z,23.83
2023-01-03T06:26:47.620Z,24.50
2023-01-03T06:29:16.704Z,24.07
2023-01-03T06:31:44.204Z,24.11
2023-01-03T06:34:11.405Z,23.79
2023-01-03T06:36:38.811Z,24.32
2023-01-03T06:39:07.380Z,24.66
2023-01-03T06:41:34.737Z,24.24
2023-01-03T06:44:01.923Z,23.82
2023-01-03T06:46:48.070Z,24.56
2023-01-03T06:49:34.959Z,24.69
2023-01-03T06:52:21.648Z,25.34
2023-01-03T06:54:51.118Z,24.73
2023-01-03T06:57:26.499Z,24.87
2023-01-03T06:59:55.308Z,25.00
2023-01-03T07:02:22.919Z,24.90
2023-01-03T07:04:50.332Z,25.38
2023-01-03T07:07:17.593Z,24.65
2023-01-03T07:09:44.924Z,24.73
2023-01-03T07:12:30.806Z,25.19
2023-01-03T07:14:58.827Z,24.90
2023-01-03T07:17:26.024Z,24.83
2023-01-03T07:19:53.311Z,24.32
2023-01-03T07:22:20.510Z,25.25
2023-01-03T07:24:47.966Z,24.71
2023-01-03T07:27:15.136Z,24.84
2023-01-03T07:29:42.425Z,24.99
2023-01-03T07:32:09.619Z,24.88
2023-01-03T07:34:36.851Z,24.84
2023-01-03T07:37:04.231Z,24.74
2023-01-03T07:39:31.616Z,24.39
2023-01-03T07:42:17.750Z,24.54
2023-01-03T07:44:45.167Z,24.48
2023-01-03T07:47:12.345Z,24.90
2023-01-03T07:49:40.360Z,24.10
2023-01-03T07:52:07.539Z,23.29
2023-01-03T07:54:34.973Z,23.77
2023-01-03T07:57:02.226Z,23.72
2023-01-03T07:59:31.519Z,23.91
2023-01-03T08:01:58.853Z,24.32
2023-01-03T08:04:26.215Z,24.10
2023-01-03T08:06:53.784Z,23.87
2023-01-03T08:09:39.464Z,23.88
2023-01-03T08:12:25.300Z,23.50
2023-01-03T08:14:52.522Z,23.75
2023-01-03T08:17:19.739Z,23.92
2023-01-03T08:19:47.153Z,24.43
2023-01-03T08:22:14.562Z,24.80
2023-01-03T08:24:41.843Z,24.32
2023-01-03T08:27:08.994Z,24.44
2023-01-03T08:29:36.329Z,24.90
2023-01-03T08:32:04.769Z,24.41
2023-01-03T08:34:36.349Z,24.07
2023-01-03T08:37:41.039Z,23.75
2023-01-03T08:40:18.200Z,23.92
2023-01-03T08:42:46.244Z,24.23
2023-01-03T08:45:15.767Z,24.28
2023-01-03T08:47:43.485Z,24.02
2023-01-03T08:50:11.588Z,24.42
2023-01-03T08:52:39.391Z,23.84
2023-01-03T08:55:08.405Z,23.89
2023-01-03T08:57:35.575Z,24.26
2023-01-03T09:00:03.854Z,23.69
2023-01-03T09:02:33.369Z,23.45
2023-01-03T09:05:00.789Z,23.05
2023-01-03T09:07:28.037Z,23.51
2023-01-03T09:09:55.308Z,23.60
2023-01-03T09:12:22.477Z,23.71
2023-01-03T09:14:50.253Z,24.02
2023-01-03T09:17:17.455Z,23.63
2023-01-03T09:19:44.908Z,24.03
2023-01-03T09:22:12.133Z,23.93
2023-01-03T09:24:39.398Z,23.79
2023-01-03T09:27:06.655Z,23.93
2023-01-03T09:29:34.007Z,23.48
2023-01-03T09:32:03.787Z,23.84
2023-01-03T09:34:31.070Z,23.80
2023-01-03T09:36:58.275Z,24.43
2023-01-03T09:39:25.732Z,23.85
2023-01-03T09:42:11.443Z,23.97
2023-01-03T09:44:39.772Z,23.96
2023-01-03T09:47:07.167Z,23.77
2023-01-03T09:49:51.869Z,24.04
2023-01-03T09:52:44.097Z,23.75
2023-01-03T09:55:56.189Z,23.77
2023-01-03T09:58:42.361Z,24.18
2023-01-03T10:01:37.901Z,24.40
2023-01-03T10:04:11.426Z,24.02
2023-01-03T10:06:43.717Z,24.39
2023-01-03T10:09:14.311Z,23.81
2023-01-03T10:12:02.454Z,24.62
2023-01-03T10:14:32.696Z,24.22
2023-01-03T10:17:11.497Z,24.61
2023-01-03T10:19:44.582Z,25.16
2023-01-03T10:22:21.032Z,24.48
2023-01-03T10:24:51.269Z,24.41
2023-01-03T10:27:22.357Z,23.87
2023-01-03T10:29:51.713Z,23.92
2023-01-03T10:32:29.170Z,24.60
2023-01-03T10:35:15.518Z,24.10
2023-01-03T10:37:43.373Z,23.93
2023-01-03T10:40:11.510Z,23.28
2023-01-03T10:42:39.920Z,23.86
2023-01-03T10:45:21.141Z,24.54
2023-01-03T10:47:59.613Z,24.60
2023-01-03T10:50:28.419Z,24.72
2023-01-03T10:53:00.822Z,24.66
2023-01-03T10:55:28.552Z,24.85
2023-01-03T10:57:55.692Z,25.51
2023-01-03T11:00:35.077Z,25.01
2023-01-03T11:03:16.560Z,24.60
2023-01-03T11:06:07.522Z,25.02
2023-01-03T11:08:46.084Z,25.60
2023-01-03T11:11:32.920Z,24.14
2023-01-03T11:14:09.409Z,24.68
2023-01-03T11:16:36.763Z,24.65
2023-01-03T11:19:05.300Z,24.09
2023-01-03T11:21:42.054Z,24.46
2023-01-03T11:24:21.755Z,25.03
2023-01-03T11:26:55.053Z,24.60
2023-01-03T11:29:25.082Z,24.83
2023-01-03T11:32:21.853Z,24.75
2023-01-03T11:35:24.884Z,24.90
2023-01-03T11:37:52.664Z,24.66
2023-01-03T11:40:38.238Z,24.42
2023-01-03T11:43:24.016Z,24.17
2023-01-03T11:46:09.722Z,24.53
2023-01-03T11:48:54.623Z,24.67
2023-01-03T11:51:29.147Z,23.99
2023-01-03T11:54:03.122Z,23.61
2023-01-03T11:56:30.347Z,23.98
2023-01-03T11:59:12.501Z,23.91
2023-01-03T12:01:44.722Z,25.03
2023-01-03T12:04:24.836Z,24.51
2023-01-03T12:07:45.067Z,24.43
2023-01-03T12:10:02.150Z,24.45
2023-01-03T12:12:29.588Z,25.38
2023-01-03T12:15:14.724Z,24.72
2023-01-03T12:17:49.424Z,24.45
2023-01-03T12:20:25.322Z,24.72
2023-01-03T12:22:56.861Z,24.20
2023-01-03T12:25:35.722Z,24.18
2023-01-03T12:28:03.045Z,24.79
2023-01-03T12:30:38.012Z,23.92
2023-01-03T12:33:08.670Z,24.62
2023-01-03T12:35:59.336Z,24.28
2023-01-03T12:38:30.039Z,24.92
2023-01-03T12:41:17.689Z,24.12
2023-01-03T12:43:48.941Z,24.63
2023-01-03T12:46:18.880Z,24.11
2023-01-03T12:48:52.497Z,24.56
2023-01-03T12:51:21.915Z,24.94
2023-01-03T12:53:54.716Z,24.40
2023-01-03T12:56:27.864Z,24.67
2023-01-03T12:59:14.144Z,25.16
2023-01-03T13:01:41.493Z,24.78
2023-01-03T13:04:19.239Z,24.37
2023-01-03T13:06:53.374Z,24.39
2023-01-03T13:09:32.172Z,24.38
2023-01-03T13:12:03.475Z,25.08
2023-01-03T13:14:30.766Z,24.97
2023-01-03T13:17:14.888Z,25.33
2023-01-03T13:20:08.818Z,24.36
2023-01-03T13:22:50.497Z,24.90
2023-01-03T13:25:23.798Z,24.42
2023-01-03T13:27:51.190Z,24.06
2023-01-03T13:30:20.605Z,23.32
2023-01-03T13:32:49.856Z,23.39
2023-01-03T13:35:17.071Z,23.30
2023-01-03T13:37:45.625Z,23.84
2023-01-03T13:41:07.468Z,23.36
2023-01-03T13:43:19.331Z,23.62
2023-01-03T13:45:46.534Z,24.11
2023-01-03T13:48:17.386Z,24.61
2023-01-03T13:51:03.445Z,23.93
2023-01-03T13:53:32.233Z,24.12
2023-01-03T13:55:59.434Z,24.98
2023-01-03T13:58:46.943Z,24.81
2023-01-03T14:01:32.031Z,23.77
2023-01-03T14:04:05.366Z,23.87
2023-01-03T14:06:51.118Z,23.68
2023-01-03T14:09:38.425Z,24.90
2023-01-03T14:12:24.556Z,24.66
2023-01-03T14:14:56.086Z,23.83
2023-01-03T14:17:33.420Z,24.10
2023-01-03T14:20:06.234Z,23.61
2023-01-03T14:22:39.161Z,23.96
2023-01-03T14:25:07.753Z,24.60
2023-01-03T14:27:41.150Z,23.26
2023-01-03T14:30:22.438Z,24.50
2023-01-03T14:32:50.078Z,24.83
2023-01-03T14:35:35.921Z,23.53
2023-01-03T14:38:06.979Z,24.46
2023-01-03T14:40:34.780Z,24.73
2023-01-03T14:43:05.394Z,23.63
2023-01-03T14:45:32.820Z,23.59
2023-01-03T14:48:00.035Z,25.15
2023-01-03T14:50:28.575Z,23.88
2023-01-03T14:52:57.413Z,23.66
2023-01-03T14:55:29.270Z,24.44
2023-01-03T14:57:57.038Z,23.18
2023-01-03T15:00:32.524Z,24.48
2023-01-03T15:03:02.253Z,24.50
2023-01-03T15:05:34.403Z,23.73
2023-01-03T15:08:17.455Z,24.55
2023-01-03T15:10:44.854Z,24.07
2023-01-03T15:13:33.080Z,23.51
2023-01-03T15:16:01.589Z,23.84
2023-01-03T15:18:32.107Z,24.06
2023-01-03T15:21:00.497Z,24.00
2023-01-03T15:23:33.793Z,23.32
2023-01-03T15:26:01.312Z,23.32
2023-01-03T15:28:30.202Z,23.60
2023-01-03T15:31:01.245Z,23.65
2023-01-03T15:33:33.493Z,23.26
2023-01-03T15:36:18.685Z,24.57
2023-01-03T15:38:48.921Z,23.15
2023-01-03T15:41:42.401Z,22.96
2023-01-03T15:44:10.276Z,23.86
2023-01-03T15:46:37.884Z,23.22
2023-01-03T15:49:06.280Z,24.10
2023-01-03T15:51:33.468Z,24.21
2023-01-03T15:54:00.796Z,23.62
2023-01-03T15:56:31.963Z,23.25
2023-01-03T15:59:00.311Z,23.42
2023-01-03T16:01:27.684Z,22.27
2023-01-03T16:03:55.111Z,23.07
2023-01-03T16:06:22.365Z,23.74
2023-01-03T16:08:49.721Z,23.32
2023-01-03T16:11:21.170Z,23.96
2023-01-03T16:13:53.076Z,23.82
2023-01-03T16:16:29.252Z,22.27
2023-01-03T16:18:57.556Z,23.23
2023-01-03T16:21:24.850Z,24.05
2023-01-03T16:23:52.113Z,24.18
2023-01-03T16:26:19.702Z,23.35
2023-01-03T16:28:46.885Z,23.17
2023-01-03T16:31:15.757Z,23.38
2023-01-03T16:33:43.649Z,23.46
2023-01-03T16:36:22.960Z,22.68
2023-01-03T16:38:50.277Z,23.17
2023-01-03T16:41:17.564Z,23.63
2023-01-03T16:43:45.959Z,22.52
2023-01-03T16:46:14.723Z,23.21
2023-01-03T16:48:44.031Z,23.24
2023-01-03T16:51:17.627Z,23.49
2023-01-03T16:53:46.620Z,23.59
2023-01-03T16:56:13.861Z,22.88
2023-01-03T16:58:41.160Z,22.90
2023-01-03T17:01:08.524Z,23.55
2023-01-03T17:03:41.459Z,23.15
2023-01-03T17:06:37.373Z,22.14
2023-01-03T17:09:08.398Z,22.82
2023-01-03T17:11:35.772Z,23.86
2023-01-03T17:14:03.475Z,22.96
2023-01-03T17:16:32.944Z,22.72
2023-01-03T17:19:00.321Z,22.90
2023-01-03T17:21:32.348Z,23.01
2023-01-03T17:24:07.224Z,23.27
2023-01-03T17:26:35.744Z,22.62
2023-01-03T17:29:05.073Z,23.05
2023-01-03T17:31:32.338Z,24.19
2023-01-03T17:34:00.118Z,24.08
2023-01-03T17:36:29.308Z,23.38
2023-01-03T17:39:00.226Z,24.00
2023-01-03T17:41:27.610Z,24.34
2023-01-03T17:43:55.017Z,23.38
2023-01-03T17:46:42.028Z,23.99
2023-01-03T17:49:24.788Z,24.40
2023-01-03T17:51:53.448Z,23.65
2023-01-03T17:54:24.164Z,23.94
2023-01-03T17:56:51.527Z,23.18
2023-01-03T17:59:18.750Z,22.79
2023-01-03T18:01:46.410Z,23.01
2023-01-03T18:04:13.693Z,23.04
2023-01-03T18:06:41.009Z,22.79
2023-01-03T18:09:11.171Z,22.96
2023-01-03T18:11:38.408Z,23.17
2023-01-03T18:14:05.636Z,22.69
2023-01-03T18:16:32.905Z,23.49
2023-01-03T18:19:00.155Z,21.93
2023-01-03T18:21:30.592Z,22.78
2023-01-03T18:24:03.179Z,22.97
2023-01-03T18:26:38.434Z,22.72
2023-01-03T18:29:06.282Z,23.02
2023-01-03T18:31:33.912Z,23.26
2023-01-03T18:34:04.597Z,23.72
2023-01-03T18:36:36.071Z,23.32
2023-01-03T18:39:04.853Z,22.50
2023-01-03T18:41:33.271Z,22.87
2023-01-03T18:44:01.001Z,23.70
2023-01-03T18:46:28.622Z,23.09
2023-01-03T18:48:56.005Z,22.77
2023-01-03T18:51:27.376Z,22.54
2023-01-03T18:53:56.319Z,23.48
2023-01-03T18:56:36.845Z,23.97
2023-01-03T18:59:12.329Z,23.39
2023-01-03T19:01:39.829Z,24.13
2023-01-03T19:04:07.232Z,23.24
2023-01-03T19:06:36.308Z,24.37
2023-01-03T19:09:04.400Z,24.68
2023-01-03T19:11:36.883Z,23.97
2023-01-03T19:14:04.427Z,23.28
2023-01-03T19:16:33.048Z,24.08
2023-01-03T19:19:00.996Z,23.51
2023-01-03T19:21:33.384Z,24.15
2023-01-03T19:24:19.592Z,23.55
2023-01-03T19:27:22.257Z,23.72
2023-01-03T19:29:53.181Z,24.15
2023-01-03T19:32:22.548Z,23.71
2023-01-03T19:34:49.829Z,24.33
2023-01-03T19:37:17.478Z,23.99
2023-01-03T19:39:44.838Z,24.28
2023-01-03T19:42:31.754Z,24.04
2023-01-03T19:45:02.930Z,23.77
2023-01-03T19:47:30.147Z,24.72
2023-01-03T19:49:58.094Z,24.89
2023-01-03T19:52:25.525Z,24.39
2023-01-03T19:54:52.677Z,24.29
2023-01-03T19:57:24.874Z,23.68
2023-01-03T19:59:54.815Z,23.60
2023-01-03T20:02:32.519Z,23.30
2023-01-03T20:05:00.382Z,23.85
2023-01-03T20:07:27.837Z,23.07
2023-01-03T20:09:55.083Z,23.95
2023-01-03T20:12:25.086Z,23.82
2023-01-03T20:14:53.450Z,23.32
2023-01-03T20:17:21.946Z,23.69
2023-01-03T20:19:49.153Z,23.47
2023-01-03T20:22:52.969Z,23.37
2023-01-03T20:25:04.366Z,23.71
2023-01-03T20:27:31.578Z,22.68
2023-01-03T20:29:58.815Z,23.23
2023-01-03T20:32:25.999Z,23.65
2023-01-03T20:34:53.454Z,23.54
2023-01-03T20:37:20.810Z,23.77
2023-01-03T20:39:48.058Z,22.82
2023-01-03T20:42:22.955Z,22.08
2023-01-03T20:44:50.517Z,22.99
2023-01-03T20:47:22.341Z,23.17
2023-01-03T20:49:50.016Z,23.35
2023-01-03T20:52:17.858Z,23.95
2023-01-03T20:54:45.211Z,23.05
2023-01-03T20:57:16.308Z,23.18
2023-01-03T20:59:43.626Z,23.36
2023-01-03T21:02:11.185Z,23.13
2023-01-03T21:04:39.852Z,22.07
2023-01-03T21:07:11.673Z,22.79
2023-01-03T21:09:39.311Z,23.45
2023-01-03T21:12:06.463Z,23.07
2023-01-03T21:14:33.679Z,23.20
2023-01-03T21:17:00.922Z,23.49
2023-01-03T21:19:28.347Z,23.13
2023-01-03T21:21:55.567Z,24.01
2023-01-03T21:24:23.683Z,22.35
2023-01-03T21:26:51.422Z,24.61
2023-01-03T21:29:18.891Z,24.50
2023-01-03T21:31:46.104Z,23.17
2023-01-03T21:34:18.077Z,23.68
2023-01-03T21:36:45.819Z,24.09
2023-01-03T21:39:13.313Z,23.88
2023-01-03T21:42:16.015Z,23.86
2023-01-03T21:44:43.384Z,23.81
2023-01-03T21:47:10.559Z,23.16
2023-01-03T21:49:37.834Z,23.50
2023-01-03T21:52:05.192Z,23.51
2023-01-03T21:54:32.532Z,23.06
2023-01-03T21:57:01.119Z,23.18
2023-01-03T21:59:30.395Z,22.85
2023-01-03T22:02:16.302Z,24.08
2023-01-03T22:04:43.550Z,23.19
2023-01-03T22:07:10.833Z,23.71
2023-01-03T22:09:56.891Z,23.74
2023-01-03T22:12:24.158Z,23.59
2023-01-03T22:14:51.407Z,23.71
2023-01-03T22:17:18.790Z,23.74
2023-01-03T22:19:46.144Z,22.74
2023-01-03T22:22:13.398Z,23.29
2023-01-03T22:24:40.666Z,23.90
2023-01-03T22:27:07.976Z,23.48
2023-01-03T22:29:35.194Z,23.70
2023-01-03T22:32:02.565Z,23.00
2023-01-03T22:34:29.804Z,23.22
2023-01-03T22:36:57.166Z,22.52
2023-01-03T22:39:25.245Z,23.01
2023-01-03T22:41:52.531Z,24.13
2023-01-03T22:44:19.743Z,24.15
2023-01-03T22:46:47.092Z,23.66
2023-01-03T22:49:14.368Z,23.65
2023-01-03T22:51:41.595Z,24.02
2023-01-03T22:54:08.832Z,24.20
2023-01-03T22:56:36.185Z,23.59
2023-01-03T22:59:03.585Z,23.50
2023-01-03T23:01:31.671Z,23.60
2023-01-03T23:04:00.679Z,23.48
2023-01-03T23:06:29.388Z,23.08
2023-01-03T23:08:57.049Z,22.95
2023-01-03T23:11:45.779Z,23.15
2023-01-03T23:14:14.171Z,22.88
2023-01-03T23:16:41.497Z,22.96
2023-01-03T23:19:13.122Z,22.62
2023-01-03T23:21:40.489Z,22.61
2023-01-03T23:24:11.878Z,22.87
2023-01-03T23:26:39.104Z,23.14
2023-01-03T23:29:06.291Z,22.61
2023-01-03T23:31:33.702Z,22.71
2023-01-03T23:34:01.021Z,22.88
2023-01-03T23:36:28.630Z,23.20
2023-01-03T23:38:55.933Z,23.09
2023-01-03T23:41:23.556Z,23.23
2023-01-03T23:43:50.797Z,23.60
2023-01-03T23:46:19.573Z,23.61
2023-01-03T23:48:47.081Z,22.99
2023-01-03T23:51:14.860Z,22.84
2023-01-03T23:53:43.529Z,23.68
2023-01-03T23:56:15.264Z,23.55
2023-01-03T23:58:43.180Z,24.14
